Time;durP1;ratioP1;P1;durP2;ratioP2;P2;SDS_P1;SDS_P2;PMS_P1;PMS_P2;Temp;Humidity;BMP_temperature;BMP_pressure;BME280_temperature;BME280_humidity;BME280_pressure;Samples;Min_cycle;Max_cycle;Signal;HPM_P1;HPM_P2
2022/05/11 00:00:20;;;;;;;;;;;;;;;16.88;61.64;97003.28;30001;983;1885;-60
2022/05/11 00:00:52;;;;;;;;;;;;;;;16.89;61.51;96996.66;30001;983;1881;-60
2022/05/11 00:01:25;;;;;;;;;;;;;;;16.88;61.70;96998.59;30001;983;1886;-60
2022/05/11 00:01:57;;;;;;;;;;;;;;;16.88;61.41;97000.53;30001;983;1881;-60
2022/05/11 00:02:28;;;;;;;;;;;;;;;16.87;61.59;97001.66;30001;983;1885;-59
2022/05/11 00:02:59;;;;;;;;;;;;;;;16.88;61.55;96997.78;30001;983;1868;-59
2022/05/11 00:03:29;;;;;;;;;;;;;;;16.87;61.91;96997.00;30001;983;1877;-60
2022/05/11 00:04:01;;;;;;;;;;;;;;;16.86;61.99;97000.06;30001;983;1881;-60
2022/05/11 00:04:32;;;;;;;;;;;;;;;16.86;61.66;97000.06;30001;983;1886;-60
2022/05/11 00:05:08;;;;;;;;;;;;;;;16.85;62.08;96996.50;30001;983;1881;-59
2022/05/11 00:05:39;;;;;;;;;;;;;;;16.85;61.47;96998.44;30001;982;1886;-59
2022/05/11 00:06:10;;;;;;;;;;;;;;;16.85;61.82;96998.44;30001;982;1882;-58
2022/05/11 00:06:41;;;;;;;;;;;;;;;16.83;61.67;96995.22;30001;982;1886;-60
2022/05/11 00:07:12;;;;;;;;;;;;;;;16.83;61.60;96995.22;30001;982;1882;-60
2022/05/11 00:07:42;;;;;;;;;;;;;;;16.84;61.28;96996.84;30001;982;1886;-59
2022/05/11 00:08:13;;;;;;;;;;;;;;;16.83;61.52;96990.56;30001;983;1868;-59
2022/05/11 00:08:45;;;;;;;;;;;;;;;16.82;61.72;96988.94;30001;983;1876;-59
2022/05/11 00:09:16;;;;;;;;;;;;;;;16.81;61.73;96992.03;30001;983;1881;-59
2022/05/11 00:09:47;;;;;;;;;;;;;;;16.81;61.68;96997.50;30001;983;1886;-59
2022/05/11 00:10:18;;;;;;;;;;;;;;;16.81;61.96;96992.03;30001;983;1881;-60
2022/05/11 00:10:49;;;;;;;;;;;;;;;16.81;61.39;96994.75;30001;983;1886;-60
2022/05/11 00:11:20;;;;;;;;;;;;;;;16.81;61.93;96986.53;30001;983;1882;-59
2022/05/11 00:11:51;;;;;;;;;;;;;;;16.80;61.49;96991.22;30001;983;1886;-61
2022/05/11 00:12:22;;;;;;;;;;;;;;;16.81;61.66;96994.75;30001;983;1881;-60
2022/05/11 00:12:54;;;;;;;;;;;;;;;16.82;61.54;96996.38;30001;982;1886;-60
2022/05/11 00:13:25;;;;;;;;;;;;;;;16.81;61.33;96992.03;30001;982;1868;-60
2022/05/11 00:13:57;;;;;;;;;;;;;;;16.81;60.93;96992.81;30001;982;1877;-60
2022/05/11 00:14:27;;;;;;;;;;;;;;;16.82;61.16;96999.09;30001;982;1882;-60
2022/05/11 00:14:58;;;;;;;;;;;;;;;16.82;60.95;96990.87;30001;982;1886;-59
2022/05/11 00:15:29;;;;;;;;;;;;;;;16.82;61.20;96988.16;30001;983;1881;-59
2022/05/11 00:16:01;;;;;;;;;;;;;;;16.81;60.84;96992.03;30001;983;1885;-59
2022/05/11 00:16:32;;;;;;;;;;;;;;;16.81;60.99;96989.28;30001;983;1868;-60
2022/05/11 00:17:04;;;;;;;;;;;;;;;16.80;60.90;96984.94;30001;983;1877;-59
2022/05/11 00:17:34;;;;;;;;;;;;;;;16.80;61.33;96993.16;30001;983;1881;-59
2022/05/11 00:18:06;;;;;;;;;;;;;;;16.80;60.90;96993.16;30001;983;1886;-60
2022/05/11 00:18:37;;;;;;;;;;;;;;;16.81;61.18;96989.28;30001;983;1881;-59
2022/05/11 00:19:08;;;;;;;;;;;;;;;16.80;61.21;96987.66;30001;983;1886;-59
2022/05/11 00:19:39;;;;;;;;;;;;;;;16.78;61.08;96985.25;30001;983;1882;-59
2022/05/11 00:20:11;;;;;;;;;;;;;;;16.79;61.28;96983.31;30001;983;1873;-58
2022/05/11 00:20:45;;;;;;;;;;;;;;;16.78;60.92;96988.00;30001;982;1873;-59
2022/05/11 00:21:16;;;;;;;;;;;;;;;16.78;60.91;96982.53;30001;982;1886;-59
2022/05/11 00:21:47;;;;;;;;;;;;;;;16.79;61.03;96983.31;30001;982;1882;-60
2022/05/11 00:22:18;;;;;;;;;;;;;;;16.79;61.03;96992.34;30001;982;1886;-61
2022/05/11 00:22:54;;;;;;;;;;;;;;;16.79;61.00;96983.31;30001;982;1882;-60
2022/05/11 00:23:25;;;;;;;;;;;;;;;16.77;60.76;96986.41;30001;983;1885;-60
2022/05/11 00:23:55;;;;;;;;;;;;;;;16.79;60.83;96981.38;30001;983;1881;-59
2022/05/11 00:24:26;;;;;;;;;;;;;;;16.79;60.75;96984.13;30001;983;1885;-59
2022/05/11 00:24:57;;;;;;;;;;;;;;;16.80;60.99;96987.66;30001;985;1881;-60
2022/05/11 00:25:28;;;;;;;;;;;;;;;16.80;60.41;96980.25;30001;983;1872;-60
2022/05/11 00:25:59;;;;;;;;;;;;;;;16.81;60.83;96981.06;30001;983;1872;-59
2022/05/11 00:26:30;;;;;;;;;;;;;;;16.79;60.54;96977.84;30001;983;1886;-60
2022/05/11 00:27:02;;;;;;;;;;;;;;;16.80;60.53;96982.19;30001;983;1833;-59
2022/05/11 00:27:33;;;;;;;;;;;;;;;16.80;60.53;96982.19;30001;982;1877;-59
2022/05/11 00:28:04;;;;;;;;;;;;;;;16.80;60.52;96973.97;30001;982;1882;-59
2022/05/11 00:28:35;;;;;;;;;;;;;;;16.79;60.50;96984.13;30001;982;1886;-61
2022/05/11 00:29:05;;;;;;;;;;;;;;;16.81;60.74;96975.56;30001;982;1882;-58
2022/05/11 00:29:36;;;;;;;;;;;;;;;16.80;60.27;96976.72;30001;982;1886;-60
2022/05/11 00:30:07;;;;;;;;;;;;;;;16.80;60.82;96982.19;30001;982;1882;-59
2022/05/11 00:30:38;;;;;;;;;;;;;;;16.79;60.26;96972.38;30001;983;1885;-60
2022/05/11 00:31:09;;;;;;;;;;;;;;;16.79;60.36;96975.09;30001;983;1881;-60
2022/05/11 00:31:41;;;;;;;;;;;;;;;16.78;60.58;96973.50;30001;983;1886;-60
2022/05/11 00:32:12;;;;;;;;;;;;;;;16.77;60.36;96980.91;30001;983;1868;-60
2022/05/11 00:32:43;;;;;;;;;;;;;;;16.77;60.65;96975.44;30001;983;1877;-59
2022/05/11 00:33:15;;;;;;;;;;;;;;;16.76;60.56;96979.31;30001;983;1881;-60
2022/05/11 00:33:45;;;;;;;;;;;;;;;16.77;60.55;96974.63;30001;983;1886;-60
2022/05/11 00:34:16;;;;;;;;;;;;;;;16.77;60.36;96977.38;30001;983;1881;-59
2022/05/11 00:34:47;;;;;;;;;;;;;;;16.77;60.64;96974.63;30001;982;1886;-60
2022/05/11 00:35:18;;;;;;;;;;;;;;;16.74;60.40;96976.91;30001;982;1869;-59
2022/05/11 00:35:50;;;;;;;;;;;;;;;16.77;60.36;96974.63;30001;982;1877;-59
2022/05/11 00:36:21;;;;;;;;;;;;;;;16.77;60.10;96971.88;30001;982;1882;-59
2022/05/11 00:36:52;;;;;;;;;;;;;;;16.75;60.52;96977.69;30001;982;1886;-59
2022/05/11 00:37:24;;;;;;;;;;;;;;;16.74;60.71;96968.69;30001;982;1882;-60
2022/05/11 00:37:55;;;;;;;;;;;;;;;16.74;60.57;96979.62;30001;982;1886;-54
2022/05/11 00:38:27;;;;;;;;;;;;;;;16.74;60.53;96970.59;30001;983;1881;-60
2022/05/11 00:38:58;;;;;;;;;;;;;;;16.73;60.43;96980.75;30001;983;1885;-60
2022/05/11 00:39:28;;;;;;;;;;;;;;;16.73;60.55;96980.75;30001;983;1881;-59
2022/05/11 00:39:59;;;;;;;;;;;;;;;16.75;60.54;96972.22;30001;983;1886;-59
2022/05/11 00:40:33;;;;;;;;;;;;;;;16.74;60.37;96974.16;30001;983;1868;-60
2022/05/11 00:41:05;;;;;;;;;;;;;;;16.74;60.73;96976.91;30001;983;1877;-60
2022/05/11 00:41:39;;;;;;;;;;;;;;;16.73;60.51;96980.75;30001;983;1881;-59
2022/05/11 00:42:10;;;;;;;;;;;;;;;16.72;60.80;96973.69;30001;983;1886;-59
2022/05/11 00:42:41;;;;;;;;;;;;;;;16.70;60.91;96970.47;30001;982;1882;-59
2022/05/11 00:43:11;;;;;;;;;;;;;;;16.71;60.67;96972.06;30001;982;1880;-60
2022/05/11 00:43:51;;;;;;;;;;;;;;;16.73;60.80;96969.81;30001;982;1882;-60
2022/05/11 00:44:22;;;;;;;;;;;;;;;16.73;60.65;96978.03;30001;982;1886;-61
2022/05/11 00:44:54;;;;;;;;;;;;;;;16.73;60.66;96975.28;30001;982;1882;-60
2022/05/11 00:45:25;;;;;;;;;;;;;;;16.73;60.65;96980.75;30001;982;1886;-60
2022/05/11 00:46:16;;;;;;;;;;;;;;;16.73;60.47;96975.28;30001;983;1868;-59
2022/05/11 00:46:56;;;;;;;;;;;;;;;16.72;60.78;96979.16;30001;983;1838;-59
2022/05/11 00:47:32;;;;;;;;;;;;;;;16.77;60.78;96975.44;30001;983;1881;-61
2022/05/11 00:49:33;;;;;;;;;;;;;;;16.80;60.41;96979.44;30001;983;1886;-61
2022/05/11 00:49:52;;;;;;;;;;;;;;;16.82;60.64;96971.69;30001;982;1886;-60
2022/05/11 00:50:25;;;;;;;;;;;;;;;16.84;60.11;96980.41;30001;982;1882;-59
2022/05/11 00:50:56;;;;;;;;;;;;;;;16.83;60.27;96973.31;30001;982;1873;-59
2022/05/11 00:51:39;;;;;;;;;;;;;;;16.83;60.63;96973.31;30001;982;1860;-60
2022/05/11 00:52:16;;;;;;;;;;;;;;;16.84;60.53;96974.91;30001;982;1886;-59
2022/05/11 00:52:49;;;;;;;;;;;;;;;16.86;60.27;96965.22;30001;982;1882;-59
2022/05/11 00:53:20;;;;;;;;;;;;;;;16.88;60.66;96973.13;30001;983;1885;-58
2022/05/11 00:53:52;;;;;;;;;;;;;;;16.87;60.64;96969.59;30001;983;1881;-59
2022/05/11 00:54:25;;;;;;;;;;;;;;;16.87;60.74;96966.03;30001;983;1886;-60
2022/05/11 00:54:59;;;;;;;;;;;;;;;16.85;60.42;96963.62;30001;983;1881;-59
2022/05/11 00:55:32;;;;;;;;;;;;;;;16.85;60.79;96971.03;30001;983;1885;-60
2022/05/11 00:56:05;;;;;;;;;;;;;;;16.83;60.64;96967.84;30001;983;1881;-60
2022/05/11 00:56:37;;;;;;;;;;;;;;;16.81;60.78;96965.41;30001;983;1873;-59
2022/05/11 00:57:11;;;;;;;;;;;;;;;16.80;60.53;96968.50;30001;983;1873;-54
2022/05/11 00:58:20;;;;;;;;;;;;;;;16.79;61.08;96972.38;30001;982;1886;-60
2022/05/11 00:59:00;;;;;;;;;;;;;;;16.77;60.99;96963.66;30001;982;1877;-58
2022/05/11 00:59:33;;;;;;;;;;;;;;;16.73;61.32;96967.06;30001;982;1873;-59
2022/05/11 01:00:08;;;;;;;;;;;;;;;16.72;61.51;96973.69;30001;983;1872;-59
2022/05/11 01:00:42;;;;;;;;;;;;;;;16.70;61.63;96964.19;30001;983;1885;-60
2022/05/11 01:01:13;;;;;;;;;;;;;;;16.69;61.52;96968.84;30001;983;1881;-60
2022/05/11 01:01:44;;;;;;;;;;;;;;;16.70;61.71;96964.97;30001;983;1885;-60
2022/05/11 01:02:15;;;;;;;;;;;;;;;16.73;61.03;96964.31;30001;983;1881;-59
2022/05/11 01:02:48;;;;;;;;;;;;;;;16.75;61.03;96967.53;30001;983;1885;-60
2022/05/11 01:03:27;;;;;;;;;;;;;;;16.77;61.04;96959.00;30001;983;1868;-59
2022/05/11 01:04:03;;;;;;;;;;;;;;;16.81;60.88;96964.62;30001;983;1873;-60
2022/05/11 01:04:36;;;;;;;;;;;;;;;16.83;60.78;96965.91;30001;983;1868;-61
2022/05/11 01:05:08;;;;;;;;;;;;;;;16.84;60.63;96963.97;30001;982;1877;-60
2022/05/11 01:05:42;;;;;;;;;;;;;;;16.84;60.18;96961.22;30001;982;1882;-60
2022/05/11 01:06:14;;;;;;;;;;;;;;;16.82;60.30;96956.06;30001;982;1873;-60
2022/05/11 01:06:45;;;;;;;;;;;;;;;16.82;60.65;96961.53;30001;982;1873;-61
2022/05/11 01:07:16;;;;;;;;;;;;;;;16.83;60.94;96962.34;30001;982;1886;-59
2022/05/11 01:07:47;;;;;;;;;;;;;;;16.80;61.30;96963.00;30001;983;1881;-60
2022/05/11 01:08:20;;;;;;;;;;;;;;;16.76;61.39;96960.13;30001;983;1885;-61
2022/05/11 01:08:53;;;;;;;;;;;;;;;16.74;61.23;96957.72;30001;983;1881;-59
2022/05/11 01:09:23;;;;;;;;;;;;;;;16.73;61.49;96960.78;30001;983;1885;-59
2022/05/11 01:09:54;;;;;;;;;;;;;;;16.72;61.31;96961.91;30001;983;1881;-60
2022/05/11 01:10:27;;;;;;;;;;;;;;;16.70;61.45;96964.97;30001;983;1886;-60
2022/05/11 01:11:03;;;;;;;;;;;;;;;16.69;61.13;96954.34;30001;968;1903;-60
2022/05/11 01:11:42;;;;;;;;;;;;;;;16.69;61.65;96962.56;30001;983;1873;-59
2022/05/11 01:12:14;;;;;;;;;;;;;;;16.67;61.56;96960.16;30001;983;1873;-60
2022/05/11 01:12:47;;;;;;;;;;;;;;;16.67;61.56;96965.66;30001;982;1886;-60
2022/05/11 01:13:19;;;;;;;;;;;;;;;16.66;61.24;96964.03;30001;982;1882;-59
2022/05/11 01:13:50;;;;;;;;;;;;;;;16.66;61.42;96963.22;30001;982;1873;-59
2022/05/11 01:14:22;;;;;;;;;;;;;;;16.66;61.42;96963.22;30001;982;1873;-60
2022/05/11 01:14:57;;;;;;;;;;;;;;;16.65;61.78;96962.44;30001;982;1886;-59
2022/05/11 01:15:29;;;;;;;;;;;;;;;16.64;61.36;96970.97;30001;983;1868;-59
2022/05/11 01:16:00;;;;;;;;;;;;;;;16.64;61.59;96966.31;30001;983;1877;-59
2022/05/11 01:16:32;;;;;;;;;;;;;;;16.63;61.49;96966.63;30001;983;1881;-60
2022/05/11 01:17:03;;;;;;;;;;;;;;;16.62;61.99;96967.75;30001;983;1886;-60
2022/05/11 01:17:36;;;;;;;;;;;;;;;16.61;61.50;96966.97;30001;983;1881;-60
2022/05/11 01:18:08;;;;;;;;;;;;;;;16.62;61.59;96965.03;30001;983;1886;-59
2022/05/11 01:18:39;;;;;;;;;;;;;;;16.60;62.04;96964.53;30001;983;1882;-58
2022/05/11 01:19:15;;;;;;;;;;;;;;;16.60;61.73;96970.81;30001;983;1886;-59
2022/05/11 01:19:46;;;;;;;;;;;;;;;16.59;61.67;96968.41;30001;983;1882;-59
2022/05/11 01:20:19;;;;;;;;;;;;;;;16.58;61.83;96967.63;30001;982;1886;-60
2022/05/11 01:20:51;;;;;;;;;;;;;;;16.58;61.79;96972.28;30001;982;1869;-59
2022/05/11 01:21:24;;;;;;;;;;;;;;;16.56;62.02;96967.13;30001;982;1877;-59
2022/05/11 01:22:06;;;;;;;;;;;;;;;16.55;62.01;96968.28;30001;982;1882;-59
2022/05/11 01:22:43;;;;;;;;;;;;;;;16.55;61.92;96971.00;30001;983;1885;-59
2022/05/11 01:23:34;;;;;;;;;;;;;;;16.56;62.01;96967.13;30001;983;1881;-60
2022/05/11 01:24:21;;;;;;;;;;;;;;;16.56;62.06;96969.06;30001;983;1881;-59
2022/05/11 01:24:52;;;;;;;;;;;;;;;16.55;61.76;96959.25;30001;983;1881;-59
2022/05/11 01:25:23;;;;;;;;;;;;;;;16.55;62.04;96967.47;30001;983;1886;-59
2022/05/11 01:25:54;;;;;;;;;;;;;;;16.52;62.22;96960.72;30001;983;1868;-59
2022/05/11 01:26:25;;;;;;;;;;;;;;;16.52;62.25;96966.19;30001;983;1877;-59
2022/05/11 01:26:56;;;;;;;;;;;;;;;16.52;62.31;96962.66;30001;983;1881;-61
2022/05/11 01:27:29;;;;;;;;;;;;;;;16.52;62.41;96968.13;30001;983;1886;-60
2022/05/11 01:28:11;;;;;;;;;;;;;;;16.52;62.45;96962.66;30001;982;1882;-60
2022/05/11 01:28:47;;;;;;;;;;;;;;;16.52;62.24;96968.94;30001;982;1886;-59
2022/05/11 01:29:18;;;;;;;;;;;;;;;16.51;61.90;96956.38;30001;982;1869;-59
2022/05/11 01:29:49;;;;;;;;;;;;;;;16.51;62.19;96961.03;30001;982;1878;-59
2022/05/11 01:30:23;;;;;;;;;;;;;;;16.51;62.22;96963.78;30001;983;1881;-59
2022/05/11 01:31:00;;;;;;;;;;;;;;;16.51;62.17;96961.84;30001;983;1886;-59
2022/05/11 01:31:31;;;;;;;;;;;;;;;16.51;62.17;96963.78;30001;983;1881;-60
2022/05/11 01:32:02;;;;;;;;;;;;;;;16.52;62.00;96962.66;30001;983;1885;-59
2022/05/11 01:32:33;;;;;;;;;;;;;;;16.51;62.57;96963.78;30001;983;1881;-60
2022/05/11 01:33:05;;;;;;;;;;;;;;;16.51;62.53;96969.25;30001;983;1886;-60
2022/05/11 01:33:39;;;;;;;;;;;;;;;16.49;62.69;96966.84;30001;983;1881;-60
2022/05/11 01:34:12;;;;;;;;;;;;;;;16.50;62.32;96964.91;30001;983;1886;-60
2022/05/11 01:34:44;;;;;;;;;;;;;;;16.49;62.32;96958.63;30001;982;1868;-61
2022/05/11 01:35:47;;;;;;;;;;;;;;;16.49;62.59;96960.56;30001;982;1877;-59
2022/05/11 01:36:27;;;;;;;;;;;;;;;16.48;62.94;96962.50;30001;982;1877;-59
2022/05/11 01:36:58;;;;;;;;;;;;;;;16.47;62.52;96960.87;30001;982;1886;-60
2022/05/11 01:37:31;;;;;;;;;;;;;;;16.46;62.93;96964.75;30001;982;1882;-59
2022/05/11 01:38:15;;;;;;;;;;;;;;;16.47;62.56;96960.09;30001;983;1885;-59
2022/05/11 01:38:50;;;;;;;;;;;;;;;16.47;62.41;96966.38;30001;983;1881;-59
2022/05/11 01:39:21;;;;;;;;;;;;;;;16.47;62.41;96960.87;30001;983;1885;-60
2022/05/11 01:39:53;;;;;;;;;;;;;;;16.48;62.27;96957.03;30001;983;1868;-59
2022/05/11 01:40:23;;;;;;;;;;;;;;;16.48;62.56;96957.03;30001;983;1864;-59
2022/05/11 01:40:54;;;;;;;;;;;;;;;16.49;62.36;96963.31;30001;983;1881;-60
2022/05/11 01:41:37;;;;;;;;;;;;;;;16.48;62.46;96965.22;30001;983;1886;-60
2022/05/11 01:42:08;;;;;;;;;;;;;;;16.47;62.30;96963.62;30001;982;1882;-59
2022/05/11 01:42:39;;;;;;;;;;;;;;;16.47;62.32;96955.41;30001;982;1886;-60
2022/05/11 01:43:35;;;;;;;;;;;;;;;16.48;62.17;96962.50;30001;982;1882;-60
2022/05/11 01:44:09;;;;;;;;;;;;;;;16.48;62.39;96962.50;30001;982;1882;-59
2022/05/11 01:44:40;;;;;;;;;;;;;;;16.48;62.24;96962.50;30001;982;1869;-60
2022/05/11 01:45:12;;;;;;;;;;;;;;;16.48;62.21;96961.69;30001;983;1877;-59
2022/05/11 01:45:43;;;;;;;;;;;;;;;16.48;62.50;96957.03;30001;983;1881;-60
2022/05/11 01:46:16;;;;;;;;;;;;;;;16.49;62.39;96969.59;30001;983;1886;-59
2022/05/11 01:46:49;;;;;;;;;;;;;;;16.49;62.45;96964.09;30001;983;1881;-58
2022/05/11 01:47:20;;;;;;;;;;;;;;;16.48;62.35;96957.03;30001;983;1885;-60
2022/05/11 01:47:55;;;;;;;;;;;;;;;16.51;62.10;96961.03;30001;983;1881;-60
2022/05/11 01:48:26;;;;;;;;;;;;;;;16.52;62.21;96955.22;30001;983;1886;-60
2022/05/11 01:48:57;;;;;;;;;;;;;;;16.52;62.12;96957.97;30001;983;1882;-59
2022/05/11 01:49:30;;;;;;;;;;;;;;;16.53;62.24;96961.50;30001;970;1907;-60
2022/05/11 01:50:01;;;;;;;;;;;;;;;16.54;62.31;96958.44;30001;982;1868;-60
2022/05/11 01:50:32;;;;;;;;;;;;;;;16.55;62.05;96962.78;30001;982;1877;-59
2022/05/11 01:51:04;;;;;;;;;;;;;;;16.55;62.16;96962.78;30001;982;1882;-60
2022/05/11 01:51:34;;;;;;;;;;;;;;;16.55;61.98;96957.31;30001;982;1886;-60
2022/05/11 01:52:07;;;;;;;;;;;;;;;16.55;62.21;96964.72;30001;982;1882;-59
2022/05/11 01:52:37;;;;;;;;;;;;;;;16.56;61.90;96963.59;30001;982;1886;-59
2022/05/11 01:53:09;;;;;;;;;;;;;;;16.56;61.85;96958.91;30001;983;1881;-60
2022/05/11 01:53:40;;;;;;;;;;;;;;;16.58;61.77;96956.66;30001;983;1886;-59
2022/05/11 01:54:11;;;;;;;;;;;;;;;16.59;61.97;96961.00;30001;983;1881;-59
2022/05/11 01:54:42;;;;;;;;;;;;;;;16.60;61.43;96954.41;30001;983;1886;-59
2022/05/11 01:55:13;;;;;;;;;;;;;;;16.61;61.82;96966.97;30001;983;1868;-59
2022/05/11 01:55:44;;;;;;;;;;;;;;;16.61;61.96;96961.47;30001;983;1877;-60
2022/05/11 01:56:16;;;;;;;;;;;;;;;16.59;62.82;96958.25;30001;983;1882;-59
2022/05/11 01:56:46;;;;;;;;;;;;;;;16.56;62.87;96964.41;30001;983;1873;-60
2022/05/11 01:57:17;;;;;;;;;;;;;;;16.57;62.03;96955.06;30001;982;1873;-59
2022/05/11 01:57:50;;;;;;;;;;;;;;;16.57;62.21;96960.53;30001;982;1886;-59
2022/05/11 01:58:22;;;;;;;;;;;;;;;16.58;62.42;96956.66;30001;982;1882;-54
2022/05/11 01:58:54;;;;;;;;;;;;;;;16.58;62.17;96953.91;30001;982;1886;-60
2022/05/11 01:59:24;;;;;;;;;;;;;;;16.58;62.56;96955.84;30001;983;1881;-60
2022/05/11 01:59:55;;;;;;;;;;;;;;;16.58;62.09;96956.66;30001;983;1885;-57
2022/05/11 02:00:26;;;;;;;;;;;;;;;16.57;62.00;96956.97;30001;983;1881;-60
2022/05/11 02:00:58;;;;;;;;;;;;;;;16.56;62.15;96945.22;30001;983;1886;-58
2022/05/11 02:01:30;;;;;;;;;;;;;;;16.56;62.21;96956.19;30001;983;1881;-59
2022/05/11 02:02:01;;;;;;;;;;;;;;;16.57;62.21;96956.97;30001;983;1873;-59
2022/05/11 02:02:31;;;;;;;;;;;;;;;16.56;62.18;96958.13;30001;983;1872;-60
2022/05/11 02:03:03;;;;;;;;;;;;;;;16.55;62.13;96948.28;30001;983;1886;-59
2022/05/11 02:03:34;;;;;;;;;;;;;;;16.54;61.97;96952.97;30001;983;1881;-55
2022/05/11 02:07:49;;;;;;;;;;;;;;;16.54;62.21;96954.91;30001;983;1886;-59
2022/05/11 02:07:49;;;;;;;;;;;;;;;16.49;62.70;96953.16;30001;983;1877;-59
2022/05/11 02:08:21;;;;;;;;;;;;;;;16.48;62.52;96950.75;30001;983;1881;-60
2022/05/11 02:08:52;;;;;;;;;;;;;;;16.48;62.75;96957.03;30001;983;1886;-60
2022/05/11 02:09:22;;;;;;;;;;;;;;;16.48;62.90;96956.22;30001;983;1881;-58
2022/05/11 02:09:53;;;;;;;;;;;;;;;16.48;62.77;96956.22;30001;983;1885;-54
2022/05/11 02:10:25;;;;;;;;;;;;;;;16.46;62.62;96956.53;30001;983;1882;-61
2022/05/11 02:10:56;;;;;;;;;;;;;;;16.45;62.58;96952.19;30001;983;1886;-60
2022/05/11 02:11:27;;;;;;;;;;;;;;;16.46;62.75;96953.00;30001;983;1882;-60
2022/05/11 02:11:58;;;;;;;;;;;;;;;16.45;63.13;96952.19;30001;982;1873;-58
2022/05/11 02:12:29;;;;;;;;;;;;;;;16.43;63.16;96952.53;30001;982;1860;-60
2022/05/11 02:13:00;;;;;;;;;;;;;;;16.43;63.03;96952.53;30001;982;1886;-59
2022/05/11 02:13:32;;;;;;;;;;;;;;;16.43;62.72;96954.47;30001;982;1882;-59
2022/05/11 02:14:03;;;;;;;;;;;;;;;16.42;62.88;96953.66;30001;982;1886;-59
2022/05/11 02:14:34;;;;;;;;;;;;;;;16.42;62.83;96952.84;30001;983;1881;-59
2022/05/11 02:15:05;;;;;;;;;;;;;;;16.40;63.05;96950.44;30001;983;1885;-59
2022/05/11 02:15:37;;;;;;;;;;;;;;;16.41;63.10;96959.47;30001;983;1881;-59
2022/05/11 02:16:08;;;;;;;;;;;;;;;16.40;63.17;96952.37;30001;983;1872;-59
2022/05/11 02:16:39;;;;;;;;;;;;;;;16.39;63.11;96950.75;30001;983;1859;-59
2022/05/11 02:17:10;;;;;;;;;;;;;;;16.39;62.87;96953.50;30001;983;1886;-60
2022/05/11 02:17:41;;;;;;;;;;;;;;;16.37;63.04;96950.28;30001;983;1881;-59
2022/05/11 02:18:12;;;;;;;;;;;;;;;16.36;62.92;96954.16;30001;983;1886;-59
2022/05/11 02:18:43;;;;;;;;;;;;;;;16.35;63.25;96955.28;30001;983;1881;-60
2022/05/11 02:19:14;;;;;;;;;;;;;;;16.33;63.43;96952.87;30001;983;1886;-58
2022/05/11 02:19:45;;;;;;;;;;;;;;;16.33;63.33;96954.81;30001;982;1882;-59
2022/05/11 02:20:17;;;;;;;;;;;;;;;16.33;63.32;96954.81;30001;982;1886;-59
2022/05/11 02:20:48;;;;;;;;;;;;;;;16.32;63.58;96955.94;30001;982;1882;-59
2022/05/11 02:21:19;;;;;;;;;;;;;;;16.32;63.27;96958.69;30001;982;1886;-60
2022/05/11 02:21:50;;;;;;;;;;;;;;;16.32;63.67;96953.22;30001;982;1869;-60
2022/05/11 02:22:21;;;;;;;;;;;;;;;16.31;63.53;96954.34;30001;983;1863;-60
2022/05/11 02:22:52;;;;;;;;;;;;;;;16.32;63.73;96953.22;30001;983;1881;-60
2022/05/11 02:23:23;;;;;;;;;;;;;;;16.32;63.47;96958.69;30001;983;1885;-59
2022/05/11 02:23:54;;;;;;;;;;;;;;;16.31;63.41;96957.06;30001;983;1881;-60
2022/05/11 02:24:25;;;;;;;;;;;;;;;16.30;63.74;96961.75;30001;983;1886;-61
2022/05/11 02:24:56;;;;;;;;;;;;;;;16.29;63.85;96953.84;30001;983;1881;-58
2022/05/11 02:25:27;;;;;;;;;;;;;;;16.28;63.92;96950.34;30001;983;1886;-60
2022/05/11 02:25:58;;;;;;;;;;;;;;;16.28;63.70;96946.81;30001;983;1882;-60
2022/05/11 02:26:29;;;;;;;;;;;;;;;16.28;63.69;96958.56;30001;983;1873;-59
2022/05/11 02:27:01;;;;;;;;;;;;;;;16.28;63.62;96957.75;30001;983;1782;-60
2022/05/11 02:27:33;;;;;;;;;;;;;;;16.27;63.45;96951.47;30001;982;1886;-59
2022/05/11 02:28:04;;;;;;;;;;;;;;;16.28;64.05;96957.75;30001;982;1882;-60
2022/05/11 02:28:35;;;;;;;;;;;;;;;16.27;63.69;96951.47;30001;982;1886;-59
2022/05/11 02:29:05;;;;;;;;;;;;;;;16.27;63.73;96950.66;30001;982;1869;-59
2022/05/11 02:29:36;;;;;;;;;;;;;;;16.27;63.63;96953.41;30001;983;1876;-55
2022/05/11 02:30:08;;;;;;;;;;;;;;;16.27;63.36;96956.16;30001;983;1881;-59
2022/05/11 02:30:40;;;;;;;;;;;;;;;16.25;63.88;96948.25;30001;983;1886;-59
2022/05/11 02:31:10;;;;;;;;;;;;;;;16.26;63.73;96952.59;30001;983;1881;-60
2022/05/11 02:31:43;;;;;;;;;;;;;;;16.26;63.70;96951.81;30001;983;1886;-60
2022/05/11 02:32:13;;;;;;;;;;;;;;;16.26;63.78;96951.81;30001;983;1881;-59
2022/05/11 02:32:44;;;;;;;;;;;;;;;16.25;63.57;96952.94;30001;983;1886;-59
2022/05/11 02:33:15;;;;;;;;;;;;;;;16.26;63.67;96949.06;30001;983;1868;-60
2022/05/11 02:33:46;;;;;;;;;;;;;;;16.25;63.70;96947.47;30001;983;1877;-59
2022/05/11 02:35:12;;;;;;;;;;;;;;;16.26;63.87;96954.53;30001;982;1882;-60
2022/05/11 02:35:15;;;;;;;;;;;;;;;16.27;64.16;96956.94;30001;982;1886;-60
2022/05/11 02:35:46;;;;;;;;;;;;;;;16.27;64.10;96946.00;30001;982;1882;-60
2022/05/11 02:36:17;;;;;;;;;;;;;;;16.28;63.79;96952.28;30001;982;1886;-59
2022/05/11 02:36:48;;;;;;;;;;;;;;;16.26;64.43;96943.59;30001;982;1882;-60
2022/05/11 02:37:19;;;;;;;;;;;;;;;16.25;64.19;96944.72;30001;983;1872;-59
2022/05/11 02:37:55;;;;;;;;;;;;;;;16.24;64.20;96952.13;30001;983;1872;-55
2022/05/11 02:38:28;;;;;;;;;;;;;;;16.26;64.01;96951.81;30001;983;1886;-58
2022/05/11 02:38:59;;;;;;;;;;;;;;;16.27;63.90;96953.41;30001;983;1881;-61
2022/05/11 02:39:29;;;;;;;;;;;;;;;16.27;63.82;96945.19;30001;983;1872;-59
2022/05/11 02:40:00;;;;;;;;;;;;;;;16.27;63.53;96950.66;30001;983;1872;-60
2022/05/11 02:40:33;;;;;;;;;;;;;;;16.26;63.79;96960.03;30001;959;1820;-60
2022/05/11 02:41:05;;;;;;;;;;;;;;;16.25;64.06;96947.47;30001;983;1882;-60
2022/05/11 02:41:37;;;;;;;;;;;;;;;16.24;63.83;96954.88;30001;982;1886;-59
2022/05/11 02:42:08;;;;;;;;;;;;;;;16.24;64.30;96956.81;30001;982;1882;-59
2022/05/11 02:42:39;;;;;;;;;;;;;;;16.23;64.15;96952.47;30001;982;1873;-59
2022/05/11 02:43:11;;;;;;;;;;;;;;;16.23;64.18;96957.94;30001;982;1873;-59
2022/05/11 02:43:42;;;;;;;;;;;;;;;16.23;63.89;96952.47;30001;982;1886;-58
2022/05/11 02:44:13;;;;;;;;;;;;;;;16.23;63.90;96949.72;30001;982;1882;-59
2022/05/11 02:44:44;;;;;;;;;;;;;;;16.21;64.01;96952.78;30001;983;1885;-59
2022/05/11 02:45:16;;;;;;;;;;;;;;;16.21;64.28;96957.44;30001;983;1881;-59
2022/05/11 02:45:48;;;;;;;;;;;;;;;16.20;64.14;96951.19;30001;983;1886;-59
2022/05/11 02:46:20;;;;;;;;;;;;;;;16.21;64.18;96958.25;30001;983;1881;-59
2022/05/11 02:46:51;;;;;;;;;;;;;;;16.22;64.08;96953.59;30001;983;1873;-54
2022/05/11 02:47:22;;;;;;;;;;;;;;;16.21;64.67;96950.03;30001;983;1872;-59
2022/05/11 02:47:54;;;;;;;;;;;;;;;16.21;64.44;96949.25;30001;983;1873;-55
2022/05/11 02:48:25;;;;;;;;;;;;;;;16.18;64.70;96952.63;30001;983;1873;-55
2022/05/11 02:48:56;;;;;;;;;;;;;;;16.19;64.30;96948.75;30001;982;1886;-59
2022/05/11 02:49:27;;;;;;;;;;;;;;;16.18;64.48;96950.69;30001;982;1881;-55
2022/05/11 02:49:58;;;;;;;;;;;;;;;16.17;64.26;96949.09;30001;982;1886;-60
2022/05/11 02:50:31;;;;;;;;;;;;;;;16.17;64.79;96940.06;30001;982;1882;-59
2022/05/11 02:51:03;;;;;;;;;;;;;;;16.16;64.41;96949.41;30001;982;1886;-60
2022/05/11 02:51:34;;;;;;;;;;;;;;;16.17;64.37;96945.56;30001;982;1882;-59
2022/05/11 02:52:05;;;;;;;;;;;;;;;16.18;64.10;96947.16;30001;982;1886;-58
2022/05/11 02:52:38;;;;;;;;;;;;;;;16.17;64.48;96942.81;30001;983;1881;-56
2022/05/11 02:53:11;;;;;;;;;;;;;;;16.17;64.66;96940.06;30001;983;1873;-59
2022/05/11 02:53:42;;;;;;;;;;;;;;;16.17;64.34;96940.88;30001;983;1872;-60
2022/05/11 02:54:13;;;;;;;;;;;;;;;16.17;64.74;96948.28;30001;983;1886;-61
2022/05/11 02:54:46;;;;;;;;;;;;;;;16.17;64.52;96946.34;30001;983;1881;-60
2022/05/11 02:55:18;;;;;;;;;;;;;;;16.20;64.31;96950.38;30001;983;1886;-55
2022/05/11 02:55:50;;;;;;;;;;;;;;;16.20;64.17;96944.91;30001;983;1882;-55
2022/05/11 02:56:21;;;;;;;;;;;;;;;16.20;64.22;96944.91;30001;983;1873;-59
2022/05/11 02:56:52;;;;;;;;;;;;;;;16.20;64.41;96944.91;30001;982;1860;-59
2022/05/11 02:57:23;;;;;;;;;;;;;;;16.18;64.60;96941.69;30001;982;1873;-59
2022/05/11 02:57:54;;;;;;;;;;;;;;;16.17;64.26;96946.34;30001;986;1873;-54
2022/05/11 02:58:26;;;;;;;;;;;;;;;16.17;64.32;96951.03;30001;982;1886;-54